BOJ weather

Burgas Airport
Burgas, Burgas Province, Bulgaria

Public forecast

Using degrees Celsius for public forecast. Weather courtesy of forecast.io.

Current aviation weather report (METAR) for Burgas Airport

Retrieved 2019/10/16 04:00 UTC (3 minutes ago):

LBBG 160400Z 31004KT 9999 BKN021 17/13 Q1018 NOSIG

Aviation forecast (TAF) for Burgas Airport

Retrieved 2019-10-16 00:00 UTC (4 hours ago):

TAF LBBG 152300Z 1600/1624 VRB04KT 9999 SCT012 SCT012 BKN020 TEMPO 1601/1606 3000 BR SCT007 OVC015 PROB30 1602/1605 0600 BCFG BKN004 BECMG 1608/1610 11010KT 9999 SCT025 BECMG 1618/1620 VRB04KT BKN015